Decoded Metar for KMMV (MACKMINNVILLE in OR, USA) (IATA:MMV) | Meteo·Mobile Aviation Weather
aviador You're here:

KMMV Decoded Metar

MACKMINNVILLE in OR, USA
Report Time2018-11-19 00:53:00
UTC Time2018-11-19 01:15:37
Flight Rules vfr VFR
Wind350° at 05 kt
W.Decomp.*RWY 35: 4.7 kt HW 1.6 kt LCW
RWY 04: 1.8 kt HW 4.7 kt LCW
W.Rank350° ranks 2
Current wind is below 350° avg. (6.0)
Visibility9999 m
Phenomena:N/A
Clouds:N/A
Expected CloudBase > 2,800 ft AGL from Temp-Dew spread
CeilingNone
Temp10°C (ISA -5)
Dew Point03°C (62% RH)
AAT6.7°C
QNH1020 hPa
Density Alt-535 ft
Elevation157 ft
Report Wrong Elevation
Raw Report
KMMV 190053Z AUTO 35005KT 10SM CLR 10/03 A3011 RMK AO2 SLP197
T01000028=

Extra information for KMMV:More info

Metar Taf Metar & Taf Last 4 Metars F.Rules Stats Wind Profile Meteogram Temp Stats Airport Information Weather charts Add Link Nearby VenuesMetar ALERT Operation Metar Decoded Social comments

AIRNAV info for KMMV